createdAt,value
2023-05-12T00:00:15.574Z,3.03
2023-05-12T00:03:08.858Z,3.70
2023-05-12T00:05:41.189Z,3.27
2023-05-12T00:08:13.679Z,3.60
2023-05-12T00:10:46.366Z,3.70
2023-05-12T00:13:18.844Z,3.50
2023-05-12T00:15:51.475Z,3.57
2023-05-12T00:18:23.928Z,3.70
2023-05-12T00:20:56.525Z,2.80
2023-05-12T00:23:29.032Z,3.10
2023-05-12T00:26:01.708Z,3.30
2023-05-12T00:28:36.623Z,3.23
2023-05-12T00:31:09.565Z,3.57
2023-05-12T00:33:42.209Z,3.50
2023-05-12T00:36:14.741Z,3.23
2023-05-12T00:38:47.179Z,3.13
2023-05-12T00:41:19.873Z,3.27
2023-05-12T00:43:52.595Z,3.50
2023-05-12T00:46:25.090Z,2.90
2023-05-12T00:48:57.510Z,3.20
2023-05-12T00:51:31.149Z,2.97
2023-05-12T00:54:03.929Z,3.40
2023-05-12T00:56:39.550Z,3.67
2023-05-12T00:59:13.776Z,3.37
2023-05-12T01:01:47.933Z,3.13
2023-05-12T01:04:21.161Z,3.30
2023-05-12T01:06:59.519Z,3.13
2023-05-12T01:09:31.772Z,3.53
2023-05-12T01:12:04.856Z,3.10
2023-05-12T01:17:15.366Z,2.63
2023-05-12T01:19:51.524Z,3.27
2023-05-12T01:22:26.097Z,3.73
2023-05-12T01:25:01.292Z,3.20
2023-05-12T01:27:40.609Z,3.50
2023-05-12T01:30:19.159Z,3.53
2023-05-12T01:32:52.396Z,3.57
2023-05-12T01:35:25.310Z,3.33
2023-05-12T01:38:05.404Z,3.10
2023-05-12T01:40:41.457Z,3.17
2023-05-12T01:43:16.501Z,3.13
2023-05-12T01:45:49.187Z,3.43
2023-05-12T01:48:21.405Z,3.77
2023-05-12T01:50:54.722Z,2.97
2023-05-12T01:53:27.146Z,3.20
2023-05-12T01:55:59.650Z,2.90
2023-05-12T01:58:32.761Z,3.30
2023-05-12T02:01:06.845Z,3.60
2023-05-12T02:03:40.039Z,3.30
2023-05-12T02:06:17.199Z,3.10
2023-05-12T02:08:50.027Z,3.35
2023-05-12T02:11:23.016Z,3.20
2023-05-12T02:13:55.200Z,3.20
2023-05-12T02:16:29.474Z,3.33
2023-05-12T02:19:01.870Z,3.20
2023-05-12T02:21:35.051Z,3.40
2023-05-12T02:24:09.295Z,2.83
2023-05-12T02:26:41.723Z,2.90
2023-05-12T02:29:14.672Z,3.23
2023-05-12T02:31:47.107Z,3.00
2023-05-12T02:34:21.555Z,3.40
2023-05-12T02:36:54.391Z,3.10
2023-05-12T02:39:26.674Z,2.90
2023-05-12T02:41:58.924Z,3.30
2023-05-12T02:44:33.721Z,3.33
2023-05-12T02:47:07.172Z,3.10
2023-05-12T02:49:41.944Z,2.93
2023-05-12T02:52:14.699Z,3.00
2023-05-12T02:54:46.939Z,3.33
2023-05-12T02:57:19.166Z,3.20
2023-05-12T02:59:51.444Z,3.30
2023-05-12T03:02:23.949Z,2.73
2023-05-12T03:04:56.554Z,2.97
2023-05-12T03:07:29.422Z,3.33
2023-05-12T03:10:02.957Z,3.47
2023-05-12T03:12:37.364Z,3.90
2023-05-12T03:15:13.909Z,3.12
2023-05-12T03:17:46.464Z,3.03
2023-05-12T03:20:19.977Z,3.43
2023-05-12T03:22:53.279Z,3.52
2023-05-12T03:25:25.873Z,2.93
2023-05-12T03:27:59.360Z,3.37
2023-05-12T03:30:33.242Z,3.37
2023-05-12T03:33:05.589Z,2.90
2023-05-12T03:35:43.812Z,2.63
2023-05-12T03:38:16.584Z,3.23
2023-05-12T03:40:52.928Z,2.87
2023-05-12T03:43:26.097Z,3.25
2023-05-12T03:46:02.121Z,3.43
2023-05-12T03:48:38.483Z,3.33
2023-05-12T03:51:12.433Z,2.80
2023-05-12T03:53:46.455Z,3.10
2023-05-12T03:56:18.811Z,3.33
2023-05-12T03:58:51.240Z,3.53
2023-05-12T04:01:23.579Z,3.03
2023-05-12T04:03:56.003Z,3.20
2023-05-12T04:06:28.430Z,3.40
2023-05-12T04:09:01.533Z,3.13
2023-05-12T04:11:35.638Z,3.07
2023-05-12T04:14:08.714Z,3.20
2023-05-12T04:16:42.560Z,3.45
2023-05-12T04:19:15.101Z,3.07
2023-05-12T04:21:48.042Z,2.53
2023-05-12T04:24:20.476Z,3.20
2023-05-12T04:26:52.779Z,3.37
2023-05-12T04:29:25.707Z,2.97
2023-05-12T04:32:00.308Z,3.13
2023-05-12T04:34:32.719Z,3.37
2023-05-12T04:37:05.095Z,3.03
2023-05-12T04:39:38.268Z,3.23
2023-05-12T04:42:11.025Z,2.77
2023-05-12T04:44:46.296Z,2.73
2023-05-12T04:47:19.326Z,3.10
2023-05-12T04:49:52.016Z,2.70
2023-05-12T04:52:25.984Z,2.73
2023-05-12T04:54:58.894Z,3.37
2023-05-12T04:57:31.617Z,2.70
2023-05-12T05:00:06.317Z,2.58
2023-05-12T05:02:40.510Z,3.23
2023-05-12T05:05:13.261Z,3.17
2023-05-12T05:07:45.664Z,2.72
2023-05-12T05:10:18.845Z,2.65
2023-05-12T05:12:51.366Z,2.90
2023-05-12T05:15:26.403Z,2.47
2023-05-12T05:18:02.187Z,2.70
2023-05-12T05:20:40.715Z,3.00
2023-05-12T05:23:15.895Z,2.55
2023-05-12T05:25:48.477Z,2.75
2023-05-12T05:28:20.833Z,2.67
2023-05-12T05:30:53.797Z,2.45
2023-05-12T05:33:26.224Z,2.80
2023-05-12T05:35:58.631Z,2.42
2023-05-12T05:38:30.902Z,2.15
2023-05-12T05:41:03.868Z,2.70
2023-05-12T05:43:40.756Z,2.97
2023-05-12T05:48:45.223Z,3.03
2023-05-12T05:51:17.621Z,2.62
2023-05-12T05:53:52.879Z,2.50
2023-05-12T05:56:25.312Z,2.67
2023-05-12T05:59:02.705Z,2.63
2023-05-12T06:01:39.780Z,2.10
2023-05-12T06:04:12.335Z,3.13
2023-05-12T06:06:45.481Z,2.30
2023-05-12T06:09:17.842Z,2.70
2023-05-12T06:11:50.567Z,2.35
2023-05-12T06:14:22.893Z,2.80
2023-05-12T06:16:55.351Z,2.60
2023-05-12T06:19:29.580Z,2.70
2023-05-12T06:24:33.127Z,2.50
2023-05-12T06:27:05.404Z,2.47
2023-05-12T06:29:38.327Z,2.20
2023-05-12T06:32:11.995Z,2.30
2023-05-12T06:34:44.264Z,2.37
2023-05-12T06:37:16.776Z,2.67
2023-05-12T06:39:48.979Z,2.30
2023-05-12T06:42:21.997Z,2.77
2023-05-12T06:44:57.101Z,2.70
2023-05-12T06:47:30.096Z,2.50
2023-05-12T06:50:02.987Z,2.25
2023-05-12T06:52:36.852Z,2.33
2023-05-12T06:55:09.983Z,2.30
2023-05-12T06:57:43.083Z,2.03
2023-05-12T07:00:19.737Z,2.53
2023-05-12T07:02:52.226Z,2.10
2023-05-12T07:05:25.266Z,1.87
2023-05-12T07:07:58.044Z,2.45
2023-05-12T07:10:30.277Z,2.43
2023-05-12T07:13:02.588Z,2.57
2023-05-12T07:15:35.074Z,2.37
2023-05-12T07:18:09.452Z,2.33
2023-05-12T07:20:41.825Z,1.83
2023-05-12T07:23:14.534Z,2.23
2023-05-12T07:25:46.857Z,2.10
2023-05-12T07:28:22.259Z,2.07
2023-05-12T07:30:54.545Z,2.07
2023-05-12T07:33:26.931Z,2.20
2023-05-12T07:35:59.129Z,2.40
2023-05-12T07:38:32.117Z,2.37
2023-05-12T07:41:05.344Z,2.47
2023-05-12T07:43:40.371Z,2.27
2023-05-12T07:46:13.766Z,2.15
2023-05-12T07:48:46.199Z,2.35
2023-05-12T07:51:18.585Z,2.40
2023-05-12T07:53:50.962Z,2.13
2023-05-12T07:56:23.321Z,2.10
2023-05-12T07:58:56.568Z,1.90
2023-05-12T08:01:28.860Z,2.23
2023-05-12T08:04:01.432Z,2.60
2023-05-12T08:06:34.036Z,2.47
2023-05-12T08:09:07.105Z,3.07
2023-05-12T08:11:45.447Z,2.60
2023-05-12T08:14:19.153Z,2.43
2023-05-12T08:16:51.491Z,2.67
2023-05-12T08:19:24.137Z,2.40
2023-05-12T08:21:56.468Z,2.40
2023-05-12T08:24:29.064Z,2.20
2023-05-12T08:27:01.464Z,2.20
2023-05-12T08:29:34.094Z,2.43
2023-05-12T08:32:07.369Z,2.20
2023-05-12T08:34:42.609Z,2.30
2023-05-12T08:37:14.968Z,2.50
2023-05-12T08:39:47.385Z,2.33
2023-05-12T08:42:32.043Z,2.33
2023-05-12T08:45:06.756Z,2.40
2023-05-12T08:47:41.880Z,2.40
2023-05-12T08:50:18.619Z,2.20
2023-05-12T08:52:51.994Z,2.30
2023-05-12T08:55:29.592Z,2.90
2023-05-12T08:58:05.485Z,2.40
2023-05-12T09:00:40.583Z,2.30
2023-05-12T09:03:15.872Z,2.30
2023-05-12T09:05:48.876Z,2.30
2023-05-12T09:08:21.431Z,2.23
2023-05-12T09:10:56.305Z,2.40
2023-05-12T09:13:37.804Z,2.90
2023-05-12T09:16:13.535Z,2.30
2023-05-12T09:18:52.252Z,2.10
2023-05-12T09:21:25.040Z,2.30
2023-05-12T09:24:00.052Z,2.17
2023-05-12T09:26:37.122Z,2.20
2023-05-12T09:29:15.801Z,2.23
2023-05-12T09:31:54.638Z,1.90
2023-05-12T09:34:32.245Z,2.20
2023-05-12T09:37:06.832Z,2.10
2023-05-12T09:39:39.781Z,2.07
2023-05-12T09:42:16.295Z,2.10
2023-05-12T09:44:49.899Z,1.90
2023-05-12T09:47:22.278Z,2.40
2023-05-12T09:49:57.820Z,2.50
2023-05-12T09:52:30.359Z,2.10
2023-05-12T09:55:10.902Z,2.13
2023-05-12T09:57:44.886Z,1.90
2023-05-12T10:00:34.596Z,2.20
2023-05-12T10:05:51.873Z,1.90
2023-05-12T10:08:28.684Z,1.60
2023-05-12T10:11:03.588Z,2.00
2023-05-12T10:13:37.196Z,1.97
2023-05-12T10:16:14.160Z,2.13
2023-05-12T10:18:48.010Z,2.20
2023-05-12T10:21:23.016Z,1.97
2023-05-12T10:23:57.997Z,2.00
2023-05-12T10:26:31.036Z,2.20
2023-05-12T10:29:03.813Z,2.23
2023-05-12T10:31:40.049Z,2.33
2023-05-12T10:34:19.996Z,2.40
2023-05-12T10:36:54.398Z,2.40
2023-05-12T10:39:33.136Z,2.00
2023-05-12T10:42:09.763Z,2.20
2023-05-12T10:44:54.087Z,2.30
2023-05-12T10:47:41.743Z,2.30
2023-05-12T10:50:15.275Z,1.80
2023-05-12T10:52:57.698Z,2.20
2023-05-12T10:55:40.013Z,2.10
2023-05-12T10:58:14.773Z,2.13
2023-05-12T11:00:51.798Z,1.90
2023-05-12T11:03:28.734Z,2.60
2023-05-12T11:08:55.398Z,1.80
2023-05-12T11:11:29.836Z,1.90
2023-05-12T11:14:03.389Z,1.50
2023-05-12T11:16:38.049Z,2.10
2023-05-12T11:19:10.873Z,1.87
2023-05-12T11:21:43.821Z,2.20
2023-05-12T11:24:16.798Z,2.13
2023-05-12T11:26:52.012Z,1.90
2023-05-12T11:29:24.427Z,1.80
2023-05-12T11:31:57.455Z,1.90
2023-05-12T11:34:30.334Z,1.83
2023-05-12T11:37:02.748Z,1.92
2023-05-12T11:39:35.411Z,2.27
2023-05-12T11:42:13.236Z,1.80
2023-05-12T11:44:51.505Z,1.80
2023-05-12T11:47:23.740Z,1.80
2023-05-12T11:49:56.749Z,2.00
2023-05-12T11:52:30.107Z,2.22
2023-05-12T11:55:06.279Z,2.10
2023-05-12T11:57:40.758Z,1.97
2023-05-12T12:00:17.361Z,2.10
2023-05-12T12:02:50.537Z,2.00
2023-05-12T12:05:23.005Z,1.70
2023-05-12T12:08:05.417Z,2.02
2023-05-12T12:10:40.240Z,1.57
2023-05-12T12:13:12.555Z,2.10
2023-05-12T12:15:44.765Z,2.20
2023-05-12T12:18:17.709Z,1.63
2023-05-12T12:20:50.385Z,1.70
2023-05-12T12:23:22.622Z,2.33
2023-05-12T12:25:54.986Z,2.43
2023-05-12T12:28:27.161Z,1.90
2023-05-12T12:31:00.095Z,1.80
2023-05-12T12:33:32.498Z,1.80
2023-05-12T12:36:05.107Z,2.10
2023-05-12T12:38:40.257Z,2.30
2023-05-12T12:41:12.814Z,1.57
2023-05-12T12:43:45.816Z,1.77
2023-05-12T12:46:18.292Z,2.10
2023-05-12T12:48:50.679Z,1.67
2023-05-12T12:51:24.328Z,2.20
2023-05-12T12:53:56.834Z,2.10
2023-05-12T12:56:29.163Z,1.70
2023-05-12T12:59:01.904Z,2.10
2023-05-12T13:01:38.899Z,2.07
2023-05-12T13:04:11.301Z,2.40
2023-05-12T13:06:43.512Z,2.67
2023-05-12T13:09:18.125Z,1.80
2023-05-12T13:11:52.043Z,1.80
2023-05-12T13:14:24.526Z,1.90
2023-05-12T13:16:57.003Z,2.00
2023-05-12T13:19:31.773Z,1.93
2023-05-12T13:22:04.175Z,2.20
2023-05-12T13:24:37.228Z,1.87
2023-05-12T13:27:10.022Z,2.00
2023-05-12T13:29:42.463Z,2.10
2023-05-12T13:32:15.219Z,1.80
2023-05-12T13:34:47.628Z,2.00
2023-05-12T13:37:20.488Z,2.20
2023-05-12T13:39:52.714Z,2.10
2023-05-12T13:42:25.020Z,1.70
2023-05-12T13:44:57.708Z,1.60
2023-05-12T13:47:29.906Z,1.70
2023-05-12T13:50:02.303Z,2.10
2023-05-12T13:52:37.078Z,1.80
2023-05-12T13:55:14.630Z,1.83
2023-05-12T13:57:53.093Z,2.22
2023-05-12T14:00:27.371Z,2.13
2023-05-12T14:02:59.781Z,1.90
2023-05-12T14:05:32.657Z,2.03
2023-05-12T14:08:05.312Z,2.00
2023-05-12T14:10:38.010Z,1.93
2023-05-12T14:13:10.366Z,2.00
2023-05-12T14:15:49.162Z,2.13
2023-05-12T14:18:22.535Z,2.33
2023-05-12T14:20:54.928Z,2.00
2023-05-12T14:23:27.378Z,1.80
2023-05-12T14:25:59.645Z,2.07
2023-05-12T14:28:32.104Z,2.00
2023-05-12T14:31:04.630Z,2.10
2023-05-12T14:33:39.842Z,2.05
2023-05-12T14:36:14.442Z,1.83
2023-05-12T14:38:46.996Z,2.10
2023-05-12T14:41:19.278Z,2.20
2023-05-12T14:43:51.632Z,2.13
2023-05-12T14:46:25.201Z,2.10
2023-05-12T14:51:28.202Z,2.30
2023-05-12T14:54:00.780Z,2.07
2023-05-12T14:56:35.728Z,2.07
2023-05-12T14:59:11.376Z,2.30
2023-05-12T15:01:44.353Z,1.93
2023-05-12T15:04:18.195Z,2.12
2023-05-12T15:06:50.768Z,2.23
2023-05-12T15:09:23.211Z,2.85
2023-05-12T15:11:55.507Z,2.13
2023-05-12T15:14:27.859Z,2.40
2023-05-12T15:17:00.177Z,2.20
2023-05-12T15:19:32.710Z,2.27
2023-05-12T15:22:05.037Z,1.90
2023-05-12T15:24:39.020Z,1.90
2023-05-12T15:27:11.428Z,2.17
2023-05-12T15:29:44.252Z,2.20
2023-05-12T15:32:16.490Z,2.20
2023-05-12T15:34:49.102Z,2.30
2023-05-12T15:37:21.476Z,2.10
2023-05-12T15:39:53.804Z,2.37
2023-05-12T15:42:30.099Z,2.03
2023-05-12T15:45:12.200Z,2.33
2023-05-12T15:47:47.292Z,2.00
2023-05-12T15:50:23.219Z,2.43
2023-05-12T15:52:55.887Z,2.00
2023-05-12T15:55:28.260Z,2.40
2023-05-12T15:58:01.401Z,2.13
2023-05-12T16:00:34.038Z,2.08
2023-05-12T16:03:07.271Z,2.02
2023-05-12T16:05:42.064Z,2.03
2023-05-12T16:08:14.427Z,2.00
2023-05-12T16:10:47.150Z,1.87
2023-05-12T16:13:19.431Z,1.80
2023-05-12T16:15:53.690Z,2.03
2023-05-12T16:18:26.694Z,2.13
2023-05-12T16:20:59.472Z,2.10
2023-05-12T16:23:32.048Z,2.27
2023-05-12T16:26:05.639Z,2.33
2023-05-12T16:28:40.732Z,2.43
2023-05-12T16:31:18.163Z,2.23
2023-05-12T16:33:50.814Z,2.33
2023-05-12T16:36:24.416Z,2.07
2023-05-12T16:38:56.926Z,2.50
2023-05-12T16:41:29.341Z,2.00
2023-05-12T16:44:02.015Z,2.00
2023-05-12T16:46:40.803Z,2.27
2023-05-12T16:49:14.593Z,2.50
2023-05-12T16:51:47.581Z,2.47
2023-05-12T16:54:20.088Z,2.17
2023-05-12T16:56:53.259Z,2.53
2023-05-12T16:59:25.760Z,2.30
2023-05-12T17:01:58.420Z,1.85
2023-05-12T17:04:30.960Z,2.30
2023-05-12T17:07:06.106Z,2.03
2023-05-12T17:09:40.172Z,2.47
2023-05-12T17:12:14.367Z,2.37
2023-05-12T17:14:59.364Z,2.13
2023-05-12T17:17:39.648Z,2.30
2023-05-12T17:20:14.010Z,2.87
2023-05-12T17:22:50.555Z,2.00
2023-05-12T17:25:23.522Z,2.13
2023-05-12T17:27:56.259Z,2.75
2023-05-12T17:30:28.996Z,2.10
2023-05-12T17:33:01.916Z,2.80
2023-05-12T17:35:37.351Z,2.37
2023-05-12T17:38:09.836Z,3.17
2023-05-12T17:40:43.341Z,2.43
2023-05-12T17:43:16.190Z,2.42
2023-05-12T17:45:48.914Z,2.33
2023-05-12T17:48:21.240Z,2.07
2023-05-12T17:50:54.400Z,2.13
2023-05-12T17:53:26.965Z,2.73
2023-05-12T17:55:59.671Z,2.30
2023-05-12T17:58:32.329Z,1.80
2023-05-12T18:01:07.665Z,2.10
2023-05-12T18:03:40.886Z,2.80
2023-05-12T18:06:16.096Z,2.50
2023-05-12T18:08:48.563Z,2.37
2023-05-12T18:11:21.175Z,2.67
2023-05-12T18:13:54.088Z,2.50
2023-05-12T18:16:29.333Z,2.30
2023-05-12T18:19:02.851Z,2.37
2023-05-12T18:21:37.267Z,2.17
2023-05-12T18:24:10.880Z,2.10
2023-05-12T18:26:43.424Z,2.20
2023-05-12T18:29:17.509Z,2.30
2023-05-12T18:31:50.151Z,2.60
2023-05-12T18:34:23.056Z,2.50
2023-05-12T18:36:56.106Z,2.33
2023-05-12T18:39:29.049Z,2.47
2023-05-12T18:42:01.464Z,2.90
2023-05-12T18:44:34.228Z,2.50
2023-05-12T18:47:09.363Z,2.53
2023-05-12T18:49:42.431Z,3.30
2023-05-12T18:52:14.778Z,3.20
2023-05-12T18:54:49.410Z,3.23
2023-05-12T18:57:22.689Z,3.70
2023-05-12T18:59:55.285Z,4.20
2023-05-12T19:02:27.783Z,4.50
2023-05-12T19:05:03.678Z,3.57
2023-05-12T19:07:39.458Z,3.60
2023-05-12T19:10:12.588Z,3.60
2023-05-12T19:12:44.821Z,3.60
2023-05-12T19:15:17.935Z,3.87
2023-05-12T19:17:50.691Z,4.73
2023-05-12T19:20:23.223Z,4.10
2023-05-12T19:22:55.560Z,3.97
2023-05-12T19:25:27.869Z,3.80
2023-05-12T19:28:00.414Z,3.70
2023-05-12T19:30:33.675Z,3.60
2023-05-12T19:33:08.712Z,4.10
2023-05-12T19:35:41.986Z,4.53
2023-05-12T19:38:14.303Z,4.53
2023-05-12T19:40:46.756Z,4.30
2023-05-12T19:43:19.153Z,4.43
2023-05-12T19:46:00.067Z,4.33
2023-05-12T19:48:42.263Z,3.60
2023-05-12T19:51:14.921Z,3.90
2023-05-12T19:53:47.289Z,4.17
2023-05-12T19:56:20.908Z,4.23
2023-05-12T19:58:56.513Z,4.10
2023-05-12T20:01:29.585Z,3.73
2023-05-12T20:04:03.305Z,3.67
2023-05-12T20:06:36.266Z,4.45
2023-05-12T20:09:08.648Z,4.83
2023-05-12T20:11:44.911Z,4.67
2023-05-12T20:14:17.277Z,4.40
2023-05-12T20:16:49.676Z,4.73
2023-05-12T20:19:22.096Z,4.33
2023-05-12T20:21:54.318Z,4.60
2023-05-12T20:24:26.915Z,3.67
2023-05-12T20:26:59.364Z,4.00
2023-05-12T20:29:32.059Z,4.10
2023-05-12T20:32:04.562Z,3.80
2023-05-12T20:34:39.723Z,3.90
2023-05-12T20:37:12.087Z,3.60
2023-05-12T20:39:44.411Z,3.70
2023-05-12T20:42:16.904Z,3.97
2023-05-12T20:44:49.189Z,4.27
2023-05-12T20:47:21.668Z,3.60
2023-05-12T20:49:58.877Z,4.07
2023-05-12T20:52:31.384Z,4.23
2023-05-12T20:55:07.260Z,4.00
2023-05-12T20:57:42.101Z,4.17
2023-05-12T21:00:17.388Z,4.23
2023-05-12T21:02:52.494Z,4.70
2023-05-12T21:05:25.828Z,4.13
2023-05-12T21:07:58.074Z,4.57
2023-05-12T21:10:32.304Z,4.43
2023-05-12T21:15:35.273Z,4.17
2023-05-12T21:18:09.164Z,3.70
2023-05-12T21:20:43.422Z,4.43
2023-05-12T21:25:50.272Z,3.93
2023-05-12T21:28:23.014Z,4.13
2023-05-12T21:30:55.474Z,5.03
2023-05-12T21:33:28.090Z,4.97
2023-05-12T21:36:01.526Z,5.40
2023-05-12T21:38:35.262Z,6.33
2023-05-12T21:41:08.558Z,5.80
2023-05-12T21:43:40.833Z,6.50
2023-05-12T21:46:13.119Z,6.43
2023-05-12T21:48:46.242Z,5.97
2023-05-12T21:51:19.222Z,7.37
2023-05-12T21:53:51.551Z,6.70
2023-05-12T21:56:24.640Z,7.30
2023-05-12T21:58:57.215Z,6.93
2023-05-12T22:01:30.123Z,7.13
2023-05-12T22:04:23.785Z,7.60
2023-05-12T22:06:56.718Z,7.63
2023-05-12T22:09:31.118Z,7.27
2023-05-12T22:12:03.756Z,7.50
2023-05-12T22:14:37.677Z,8.05
2023-05-12T22:17:10.214Z,7.67
2023-05-12T22:19:42.625Z,7.37
2023-05-12T22:22:15.080Z,7.27
2023-05-12T22:24:48.345Z,7.00
2023-05-12T22:27:22.788Z,6.60
2023-05-12T22:29:56.999Z,6.73
2023-05-12T22:35:00.674Z,7.00
2023-05-12T22:37:39.301Z,8.00
2023-05-12T22:40:14.257Z,6.90
2023-05-12T22:42:46.883Z,6.65
2023-05-12T22:45:19.425Z,5.93
2023-05-12T22:47:52.754Z,6.43
2023-05-12T22:50:25.971Z,6.42
2023-05-12T22:52:58.471Z,7.23
2023-05-12T22:55:31.722Z,6.17
2023-05-12T22:58:04.072Z,6.07
2023-05-12T23:00:38.129Z,6.90
2023-05-12T23:03:10.585Z,6.43
2023-05-12T23:05:44.461Z,6.73
2023-05-12T23:08:17.138Z,6.67
2023-05-12T23:10:49.261Z,6.57
2023-05-12T23:13:21.564Z,6.00
2023-05-12T23:15:55.821Z,6.87
2023-05-12T23:18:31.322Z,6.27
2023-05-12T23:21:03.665Z,6.00
2023-05-12T23:23:40.220Z,6.50
2023-05-12T23:26:14.122Z,6.20
2023-05-12T23:28:46.400Z,6.00
2023-05-12T23:31:18.681Z,6.20
2023-05-12T23:33:51.133Z,5.40
2023-05-12T23:36:23.533Z,6.70
2023-05-12T23:38:56.642Z,5.60
2023-05-12T23:41:31.793Z,5.87
2023-05-12T23:44:04.053Z,6.17
2023-05-12T23:46:36.706Z,6.07
2023-05-12T23:49:09.581Z,6.10
2023-05-12T23:51:44.591Z,5.67
2023-05-12T23:54:16.925Z,6.30
2023-05-12T23:56:50.729Z,6.30
2023-05-12T23:59:23.015Z,5.67
